createdAt,value
2023-02-16T00:04:02.987Z,101409
2023-02-16T00:10:38.545Z,101416
2023-02-16T00:22:59.669Z,101412
2023-02-16T00:28:53.067Z,101416
2023-02-16T00:41:12.446Z,101401
2023-02-16T00:47:10.235Z,101395
2023-02-16T00:53:03.021Z,101393
2023-02-16T01:05:10.796Z,101396
2023-02-16T01:11:17.333Z,101394
2023-02-16T01:17:21.045Z,101401
2023-02-16T01:23:25.036Z,101395
2023-02-16T01:29:21.986Z,101385
2023-02-16T01:35:20.155Z,101381
2023-02-16T01:41:28.533Z,101368
2023-02-16T01:47:38.095Z,101374
2023-02-16T01:53:43.174Z,101373
2023-02-16T01:59:42.610Z,101364
2023-02-16T02:05:38.808Z,101362
2023-02-16T02:11:47.754Z,101361
2023-02-16T02:17:54.888Z,101358
2023-02-16T02:35:49.786Z,101361
2023-02-16T02:42:14.345Z,101356
2023-02-16T02:48:04.085Z,101355
2023-02-16T03:00:32.593Z,101360
2023-02-16T03:06:33.404Z,101347
2023-02-16T03:12:24.407Z,101350
2023-02-16T03:18:23.033Z,101339
2023-02-16T03:24:27.035Z,101342
2023-02-16T03:30:21.003Z,101332
2023-02-16T03:36:14.984Z,101330
2023-02-16T03:42:11.318Z,101325
2023-02-16T03:48:11.249Z,101323
2023-02-16T03:54:02.711Z,101322
2023-02-16T03:59:56.712Z,101324
2023-02-16T04:05:50.750Z,101324
2023-02-16T04:11:53.247Z,101323
2023-02-16T04:23:50.738Z,101331
2023-02-16T04:29:44.445Z,101333
2023-02-16T04:35:50.572Z,101342
2023-02-16T04:41:42.276Z,101338
2023-02-16T04:47:50.122Z,101339
2023-02-16T04:54:04.678Z,101340
2023-02-16T05:00:00.030Z,101329
2023-02-16T05:05:51.613Z,101320
2023-02-16T05:11:43.815Z,101313
2023-02-16T05:17:38.410Z,101313
2023-02-16T05:23:54.184Z,101319
2023-02-16T05:29:44.524Z,101322
2023-02-16T05:35:34.915Z,101315
2023-02-16T05:41:26.662Z,101328
2023-02-16T05:47:16.789Z,101331
2023-02-16T05:53:07.279Z,101330
2023-02-16T05:58:59.616Z,101339
2023-02-16T06:04:50.032Z,101331
2023-02-16T06:10:40.392Z,101331
2023-02-16T06:16:30.640Z,101333
2023-02-16T06:22:19.744Z,101339
2023-02-16T06:28:09.625Z,101342
2023-02-16T06:34:03.557Z,101348
2023-02-16T06:40:07.849Z,101346
2023-02-16T06:47:23.241Z,101339
2023-02-16T06:53:13.617Z,101331
2023-02-16T06:59:05.651Z,101334
2023-02-16T07:04:56.558Z,101344
2023-02-16T07:11:01.490Z,101346
2023-02-16T07:16:54.361Z,101350
2023-02-16T07:22:45.380Z,101354
2023-02-16T07:28:33.732Z,101357
2023-02-16T07:34:24.253Z,101354
2023-02-16T07:40:14.643Z,101364
2023-02-16T07:46:03.954Z,101350
2023-02-16T07:51:53.611Z,101362
2023-02-16T07:57:44.918Z,101370
2023-02-16T08:03:47.776Z,101365
2023-02-16T08:09:45.167Z,101360
2023-02-16T08:15:42.305Z,101348
2023-02-16T08:21:32.513Z,101348
2023-02-16T08:27:26.636Z,101357
2023-02-16T08:33:18.603Z,101346
2023-02-16T08:39:09.734Z,101354
2023-02-16T08:45:01.209Z,101340
2023-02-16T08:50:50.588Z,101354
2023-02-16T08:56:41.801Z,101352
2023-02-16T09:02:33.632Z,101355
2023-02-16T09:08:26.949Z,101358
2023-02-16T09:14:18.731Z,101353
2023-02-16T09:20:08.434Z,101338
2023-02-16T09:26:00.006Z,101353
2023-02-16T09:31:52.796Z,101363
2023-02-16T09:37:43.517Z,101366
2023-02-16T09:43:36.294Z,101355
2023-02-16T09:49:37.593Z,101362
2023-02-16T09:55:28.264Z,101360
2023-02-16T10:01:19.327Z,101361
2023-02-16T10:07:12.592Z,101348
2023-02-16T10:13:04.385Z,101355
2023-02-16T10:18:56.223Z,101365
2023-02-16T10:24:47.898Z,101368
2023-02-16T10:30:43.828Z,101358
2023-02-16T10:36:47.841Z,101367
2023-02-16T10:42:39.210Z,101366
2023-02-16T10:48:29.240Z,101360
2023-02-16T10:54:23.165Z,101365
2023-02-16T11:00:25.116Z,101358
2023-02-16T11:06:18.369Z,101362
2023-02-16T11:12:09.526Z,101367
2023-02-16T11:18:30.414Z,101352
2023-02-16T11:24:37.955Z,101341
2023-02-16T11:30:37.984Z,101338
2023-02-16T11:36:29.874Z,101322
2023-02-16T11:42:20.326Z,101316
2023-02-16T11:48:10.873Z,101313
2023-02-16T11:54:13.494Z,101304
2023-02-16T12:00:07.764Z,101291
2023-02-16T12:05:58.671Z,101296
2023-02-16T12:11:55.696Z,101284
2023-02-16T12:17:46.221Z,101276
2023-02-16T12:23:37.519Z,101252
2023-02-16T12:29:32.604Z,101258
2023-02-16T12:35:26.973Z,101251
2023-02-16T12:41:19.381Z,101256
2023-02-16T12:47:09.711Z,101250
2023-02-16T12:53:00.169Z,101247
2023-02-16T12:58:49.301Z,101246
2023-02-16T13:04:49.132Z,101251
2023-02-16T13:10:44.099Z,101249
2023-02-16T13:17:04.135Z,101241
2023-02-16T13:23:03.901Z,101236
2023-02-16T13:28:56.523Z,101232
2023-02-16T13:35:17.487Z,101215
2023-02-16T13:41:41.559Z,101199
2023-02-16T13:53:55.783Z,101183
2023-02-16T14:00:00.398Z,101194
2023-02-16T14:05:49.459Z,101191
2023-02-16T14:11:47.512Z,101185
2023-02-16T14:17:44.053Z,101172
2023-02-16T14:23:46.263Z,101162
2023-02-16T14:29:51.285Z,101155
2023-02-16T14:35:55.724Z,101149
2023-02-16T14:41:45.856Z,101138
2023-02-16T14:47:48.206Z,101130
2023-02-16T14:54:10.737Z,101129
2023-02-16T15:00:10.876Z,101129
2023-02-16T15:06:15.163Z,101127
2023-02-16T15:12:07.222Z,101130
2023-02-16T15:18:10.510Z,101119
2023-02-16T15:24:01.209Z,101123
2023-02-16T15:30:02.642Z,101127
2023-02-16T15:35:54.875Z,101131
2023-02-16T15:41:48.084Z,101130
2023-02-16T15:47:51.066Z,101124
2023-02-16T15:53:53.545Z,101111
2023-02-16T15:59:45.058Z,101104
2023-02-16T16:05:33.667Z,101099
2023-02-16T16:11:24.827Z,101118
2023-02-16T16:17:28.282Z,101130
2023-02-16T16:23:18.056Z,101132
2023-02-16T16:29:11.890Z,101132
2023-02-16T16:35:06.740Z,101131
2023-02-16T16:40:59.571Z,101135
2023-02-16T16:46:49.783Z,101141
2023-02-16T16:52:53.672Z,101144
2023-02-16T16:58:50.302Z,101137
2023-02-16T17:04:39.416Z,101137
2023-02-16T17:10:28.184Z,101145
2023-02-16T17:16:18.163Z,101149
2023-02-16T17:22:10.801Z,101150
2023-02-16T17:28:01.217Z,101145
2023-02-16T17:33:54.054Z,101144
2023-02-16T17:39:44.691Z,101142
2023-02-16T17:45:37.405Z,101149
2023-02-16T17:51:28.196Z,101141
2023-02-16T17:57:19.562Z,101127
2023-02-16T18:03:12.075Z,101131
2023-02-16T18:09:03.064Z,101126
2023-02-16T18:14:57.163Z,101125
2023-02-16T18:20:53.929Z,101137
2023-02-16T18:26:45.346Z,101140
2023-02-16T18:32:36.626Z,101141
2023-02-16T18:38:27.321Z,101140
2023-02-16T18:44:20.945Z,101140
2023-02-16T18:50:18.643Z,101138
2023-02-16T18:56:09.431Z,101136
2023-02-16T19:01:59.355Z,101132
2023-02-16T19:07:52.974Z,101137
2023-02-16T19:13:43.376Z,101131
2023-02-16T19:19:34.200Z,101131
2023-02-16T19:25:24.304Z,101137
2023-02-16T19:31:13.573Z,101130
2023-02-16T19:37:05.086Z,101124
2023-02-16T19:42:55.446Z,101130
2023-02-16T19:48:45.427Z,101121
2023-02-16T19:54:35.433Z,101125
2023-02-16T20:00:25.354Z,101123
2023-02-16T20:06:15.834Z,101123
2023-02-16T20:12:04.762Z,101126
2023-02-16T20:17:59.111Z,101114
2023-02-16T20:23:51.917Z,101104
2023-02-16T20:29:42.238Z,101117
2023-02-16T20:35:34.362Z,101116
2023-02-16T20:41:25.179Z,101113
2023-02-16T20:47:17.245Z,101103
2023-02-16T20:53:09.187Z,101105
2023-02-16T20:59:01.242Z,101101
2023-02-16T21:04:52.034Z,101096
2023-02-16T21:10:55.280Z,101090
2023-02-16T21:16:44.140Z,101096
2023-02-16T21:22:33.496Z,101081
2023-02-16T21:28:25.179Z,101077
2023-02-16T21:34:14.858Z,101077
2023-02-16T21:40:05.700Z,101070
2023-02-16T21:46:00.855Z,101070
2023-02-16T21:51:52.439Z,101062
2023-02-16T21:57:42.782Z,101062
2023-02-16T22:03:34.745Z,101060
2023-02-16T22:09:26.755Z,101052
2023-02-16T22:15:19.216Z,101039
2023-02-16T22:21:09.310Z,101041
2023-02-16T22:27:00.626Z,101040
2023-02-16T22:32:55.910Z,101041
2023-02-16T22:38:47.529Z,101047
2023-02-16T22:44:41.091Z,101044
2023-02-16T22:50:31.251Z,101035
2023-02-16T22:56:20.548Z,101032
2023-02-16T23:02:22.720Z,101041
2023-02-16T23:08:29.407Z,101057
2023-02-16T23:14:44.644Z,101043
2023-02-16T23:21:05.007Z,101043
2023-02-16T23:27:02.783Z,101064
2023-02-16T23:32:56.513Z,101052
2023-02-16T23:51:39.789Z,101048
2023-02-16T23:57:30.551Z,101043
